sensor_id;sensor_type;location;lat;lon;timestamp;pressure;altitude;pressure_sealevel;temperature;humidity
9335;BME280;4706;41.844;26.082;2022-09-09T00:04:31;101001.81;;;22.12;53.10
9335;BME280;4706;41.844;26.082;2022-09-09T00:07:10;101004.91;;;22.06;53.35
9335;BME280;4706;41.844;26.082;2022-09-09T00:15:18;100986.59;;;21.74;54.65
9335;BME280;4706;41.844;26.082;2022-09-09T00:20:22;100978.00;;;21.82;54.66
9335;BME280;4706;41.844;26.082;2022-09-09T00:22:59;100973.84;;;21.96;54.22
9335;BME280;4706;41.844;26.082;2022-09-09T00:25:37;100983.28;;;22.07;54.01
9335;BME280;4706;41.844;26.082;2022-09-09T00:28:23;100970.16;;;22.11;53.90
9335;BME280;4706;41.844;26.082;2022-09-09T00:30:50;100984.09;;;22.07;54.24
9335;BME280;4706;41.844;26.082;2022-09-09T00:33:20;100970.09;;;22.07;54.19
9335;BME280;4706;41.844;26.082;2022-09-09T00:35:58;100983.44;;;22.34;53.50
9335;BME280;4706;41.844;26.082;2022-09-09T00:38:33;100980.88;;;22.25;53.92
9335;BME280;4706;41.844;26.082;2022-09-09T00:41:22;100990.75;;;22.19;53.78
9335;BME280;4706;41.844;26.082;2022-09-09T00:44:03;100992.69;;;22.15;54.16
9335;BME280;4706;41.844;26.082;2022-09-09T00:52:31;101009.13;;;22.36;53.76
9335;BME280;4706;41.844;26.082;2022-09-09T00:57:51;101001.00;;;22.50;52.82
9335;BME280;4706;41.844;26.082;2022-09-09T01:00:26;101007.41;;;22.50;52.91
9335;BME280;4706;41.844;26.082;2022-09-09T01:03:11;101003.22;;;22.41;53.23
9335;BME280;4706;41.844;26.082;2022-09-09T01:12:09;101002.34;;;22.17;53.66
9335;BME280;4706;41.844;26.082;2022-09-09T01:14:42;100999.25;;;22.22;53.32
9335;BME280;4706;41.844;26.082;2022-09-09T01:27:57;100986.81;;;22.20;53.61
9335;BME280;4706;41.844;26.082;2022-09-09T01:30:25;100992.97;;;22.29;53.55
9335;BME280;4706;41.844;26.082;2022-09-09T01:32:56;101006.97;;;22.29;53.89
9335;BME280;4706;41.844;26.082;2022-09-09T01:37:52;100990.47;;;22.04;54.68
9335;BME280;4706;41.844;26.082;2022-09-09T01:40:17;101002.16;;;22.10;54.77
9335;BME280;4706;41.844;26.082;2022-09-09T01:42:43;101001.38;;;22.10;54.78
9335;BME280;4706;41.844;26.082;2022-09-09T01:45:09;100992.75;;;22.18;54.63
9335;BME280;4706;41.844;26.082;2022-09-09T01:47:35;100996.78;;;22.01;54.98
9335;BME280;4706;41.844;26.082;2022-09-09T01:50:01;101001.94;;;21.99;55.33
9335;BME280;4706;41.844;26.082;2022-09-09T01:52:29;101002.69;;;21.96;55.44
9335;BME280;4706;41.844;26.082;2022-09-09T01:54:55;100999.94;;;21.80;56.06
9335;BME280;4706;41.844;26.082;2022-09-09T01:57:31;100998.63;;;21.94;55.62
9335;BME280;4706;41.844;26.082;2022-09-09T02:00:09;101000.91;;;21.88;55.88
9335;BME280;4706;41.844;26.082;2022-09-09T02:02:42;101002.31;;;21.78;56.33
9335;BME280;4706;41.844;26.082;2022-09-09T02:05:35;101009.16;;;21.81;56.32
9335;BME280;4706;41.844;26.082;2022-09-09T02:13:30;100993.63;;;22.03;55.89
9335;BME280;4706;41.844;26.082;2022-09-09T02:19:00;101003.97;;;22.18;55.48
9335;BME280;4706;41.844;26.082;2022-09-09T02:21:28;101007.88;;;22.33;55.10
9335;BME280;4706;41.844;26.082;2022-09-09T02:23:57;101010.97;;;22.28;55.29
9335;BME280;4706;41.844;26.082;2022-09-09T02:26:25;101003.59;;;22.20;55.61
9335;BME280;4706;41.844;26.082;2022-09-09T02:28:54;101004.03;;;22.22;55.60
9335;BME280;4706;41.844;26.082;2022-09-09T02:31:22;101001.53;;;22.17;55.84
9335;BME280;4706;41.844;26.082;2022-09-09T02:33:55;101005.59;;;22.39;53.79
9335;BME280;4706;41.844;26.082;2022-09-09T02:36:24;100999.84;;;22.32;53.81
9335;BME280;4706;41.844;26.082;2022-09-09T02:38:51;100996.66;;;22.14;54.09
9335;BME280;4706;41.844;26.082;2022-09-09T02:41:38;101010.53;;;22.26;53.49
9335;BME280;4706;41.844;26.082;2022-09-09T02:44:15;101008.41;;;22.19;53.70
9335;BME280;4706;41.844;26.082;2022-09-09T02:49:28;101005.59;;;22.19;53.25
9335;BME280;4706;41.844;26.082;2022-09-09T02:52:05;101005.06;;;22.14;53.25
9335;BME280;4706;41.844;26.082;2022-09-09T02:54:33;100993.19;;;22.01;53.49
9335;BME280;4706;41.844;26.082;2022-09-09T02:59:35;100989.34;;;21.90;53.75
9335;BME280;4706;41.844;26.082;2022-09-09T03:02:01;100998.78;;;21.81;53.88
9335;BME280;4706;41.844;26.082;2022-09-09T03:04:27;100988.59;;;21.73;54.07
9335;BME280;4706;41.844;26.082;2022-09-09T03:06:52;100980.56;;;21.72;54.08
9335;BME280;4706;41.844;26.082;2022-09-09T03:09:18;100980.03;;;21.66;54.24
9335;BME280;4706;41.844;26.082;2022-09-09T03:11:43;100984.81;;;21.66;54.65
9335;BME280;4706;41.844;26.082;2022-09-09T03:14:09;100970.88;;;21.50;55.06
9335;BME280;4706;41.844;26.082;2022-09-09T03:16:36;100983.91;;;21.42;55.42
9335;BME280;4706;41.844;26.082;2022-09-09T03:19:02;100954.56;;;21.20;55.60
9335;BME280;4706;41.844;26.082;2022-09-09T03:21:28;100988.22;;;21.24;55.90
9335;BME280;4706;41.844;26.082;2022-09-09T03:23:53;100988.41;;;21.31;55.94
9335;BME280;4706;41.844;26.082;2022-09-09T03:26:19;100988.13;;;21.36;55.65
9335;BME280;4706;41.844;26.082;2022-09-09T03:28:45;100970.72;;;21.27;55.97
9335;BME280;4706;41.844;26.082;2022-09-09T03:31:10;100981.75;;;21.36;55.56
9335;BME280;4706;41.844;26.082;2022-09-09T03:33:37;100979.03;;;21.39;55.29
9335;BME280;4706;41.844;26.082;2022-09-09T03:36:04;100982.53;;;21.36;55.26
9335;BME280;4706;41.844;26.082;2022-09-09T03:38:29;100977.84;;;21.24;55.76
9335;BME280;4706;41.844;26.082;2022-09-09T03:40:56;100982.13;;;21.18;55.91
9335;BME280;4706;41.844;26.082;2022-09-09T03:43:23;100974.66;;;21.06;56.24
9335;BME280;4706;41.844;26.082;2022-09-09T03:45:50;100966.91;;;20.84;57.01
9335;BME280;4706;41.844;26.082;2022-09-09T03:48:16;100966.53;;;20.70;57.22
9335;BME280;4706;41.844;26.082;2022-09-09T03:50:50;100969.56;;;20.65;57.22
9335;BME280;4706;41.844;26.082;2022-09-09T03:53:18;100961.56;;;20.63;57.51
9335;BME280;4706;41.844;26.082;2022-09-09T03:55:52;100957.69;;;20.68;57.18
9335;BME280;4706;41.844;26.082;2022-09-09T03:58:20;100965.81;;;20.73;57.57
9335;BME280;4706;41.844;26.082;2022-09-09T04:01:16;100969.59;;;20.80;57.30
9335;BME280;4706;41.844;26.082;2022-09-09T04:03:43;100968.03;;;20.83;57.55
9335;BME280;4706;41.844;26.082;2022-09-09T04:06:10;100968.59;;;20.89;57.24
9335;BME280;4706;41.844;26.082;2022-09-09T04:08:38;100967.34;;;20.86;57.22
9335;BME280;4706;41.844;26.082;2022-09-09T04:11:05;100974.44;;;20.83;57.05
9335;BME280;4706;41.844;26.082;2022-09-09T04:13:32;100973.53;;;20.79;57.17
9335;BME280;4706;41.844;26.082;2022-09-09T04:16:00;100980.97;;;20.88;56.87
9335;BME280;4706;41.844;26.082;2022-09-09T04:18:27;100977.88;;;20.93;56.86
9335;BME280;4706;41.844;26.082;2022-09-09T04:20:55;100982.31;;;20.94;56.71
9335;BME280;4706;41.844;26.082;2022-09-09T04:23:25;100985.91;;;20.94;56.79
9335;BME280;4706;41.844;26.082;2022-09-09T04:25:54;100986.28;;;20.93;56.94
9335;BME280;4706;41.844;26.082;2022-09-09T04:28:22;100977.00;;;20.89;57.10
9335;BME280;4706;41.844;26.082;2022-09-09T04:30:48;100987.06;;;21.09;56.75
9335;BME280;4706;41.844;26.082;2022-09-09T04:33:14;100989.69;;;21.18;56.53
9335;BME280;4706;41.844;26.082;2022-09-09T04:35:45;100992.94;;;21.20;56.79
9335;BME280;4706;41.844;26.082;2022-09-09T04:38:10;100988.88;;;21.17;57.16
9335;BME280;4706;41.844;26.082;2022-09-09T04:40:36;100984.09;;;21.18;56.99
9335;BME280;4706;41.844;26.082;2022-09-09T04:43:02;100994.13;;;21.19;57.11
9335;BME280;4706;41.844;26.082;2022-09-09T04:45:31;101004.50;;;21.18;57.18
9335;BME280;4706;41.844;26.082;2022-09-09T04:47:57;101018.38;;;21.30;57.19
9335;BME280;4706;41.844;26.082;2022-09-09T04:50:23;101013.59;;;21.31;57.23
9335;BME280;4706;41.844;26.082;2022-09-09T04:52:48;101031.03;;;21.40;57.62
9335;BME280;4706;41.844;26.082;2022-09-09T04:55:14;101019.19;;;21.47;57.52
9335;BME280;4706;41.844;26.082;2022-09-09T04:57:40;101021.44;;;21.57;57.06
9335;BME280;4706;41.844;26.082;2022-09-09T05:00:06;101038.78;;;21.82;56.38
9335;BME280;4706;41.844;26.082;2022-09-09T05:02:32;100996.22;;;21.57;56.62
9335;BME280;4706;41.844;26.082;2022-09-09T05:04:58;101038.78;;;21.82;56.32
9335;BME280;4706;41.844;26.082;2022-09-09T05:07:24;101021.47;;;21.76;56.61
9335;BME280;4706;41.844;26.082;2022-09-09T05:09:51;101025.16;;;21.80;56.81
9335;BME280;4706;41.844;26.082;2022-09-09T05:12:16;101030.34;;;21.98;56.63
9335;BME280;4706;41.844;26.082;2022-09-09T05:14:43;101012.97;;;21.73;57.28
9335;BME280;4706;41.844;26.082;2022-09-09T05:17:09;101024.00;;;21.81;57.21
9335;BME280;4706;41.844;26.082;2022-09-09T05:19:34;101026.53;;;21.71;57.61
9335;BME280;4706;41.844;26.082;2022-09-09T05:22:00;101023.19;;;21.65;58.15
9335;BME280;4706;41.844;26.082;2022-09-09T05:24:26;101023.81;;;21.74;57.96
9335;BME280;4706;41.844;26.082;2022-09-09T05:26:52;101028.75;;;21.81;58.07
9335;BME280;4706;41.844;26.082;2022-09-09T05:29:17;101030.09;;;21.87;57.87
9335;BME280;4706;41.844;26.082;2022-09-09T05:31:45;101024.72;;;21.98;57.63
9335;BME280;4706;41.844;26.082;2022-09-09T05:34:11;101027.19;;;22.19;56.96
9335;BME280;4706;41.844;26.082;2022-09-09T05:36:36;101024.09;;;22.43;56.77
9335;BME280;4706;41.844;26.082;2022-09-09T05:39:02;101020.16;;;22.48;56.63
9335;BME280;4706;41.844;26.082;2022-09-09T05:41:28;101018.25;;;22.52;56.56
9335;BME280;4706;41.844;26.082;2022-09-09T05:43:54;101019.91;;;22.57;56.58
9335;BME280;4706;41.844;26.082;2022-09-09T05:46:22;101029.34;;;22.68;56.59
9335;BME280;4706;41.844;26.082;2022-09-09T05:48:49;101030.97;;;22.69;56.75
9335;BME280;4706;41.844;26.082;2022-09-09T05:51:19;101027.94;;;22.77;56.93
9335;BME280;4706;41.844;26.082;2022-09-09T05:53:46;100981.94;;;22.59;56.94
9335;BME280;4706;41.844;26.082;2022-09-09T05:56:23;101029.97;;;22.58;58.21
9335;BME280;4706;41.844;26.082;2022-09-09T05:58:51;101032.78;;;22.58;58.31
9335;BME280;4706;41.844;26.082;2022-09-09T06:01:21;101028.13;;;22.88;57.44
9335;BME280;4706;41.844;26.082;2022-09-09T06:03:48;101019.88;;;22.95;57.72
9335;BME280;4706;41.844;26.082;2022-09-09T06:06:18;101025.53;;;23.22;56.91
9335;BME280;4706;41.844;26.082;2022-09-09T06:08:45;101022.34;;;23.50;56.45
9335;BME280;4706;41.844;26.082;2022-09-09T06:11:17;101032.47;;;23.81;55.47
9335;BME280;4706;41.844;26.082;2022-09-09T06:13:43;101023.13;;;24.04;54.92
9335;BME280;4706;41.844;26.082;2022-09-09T06:16:10;101023.69;;;24.16;55.17
9335;BME280;4706;41.844;26.082;2022-09-09T06:18:37;101013.28;;;24.20;54.78
9335;BME280;4706;41.844;26.082;2022-09-09T06:21:05;101019.13;;;24.38;54.34
9335;BME280;4706;41.844;26.082;2022-09-09T06:23:32;101019.41;;;24.60;53.88
9335;BME280;4706;41.844;26.082;2022-09-09T06:26:06;101023.09;;;24.67;53.31
9335;BME280;4706;41.844;26.082;2022-09-09T06:28:33;101013.03;;;24.66;53.74
9335;BME280;4706;41.844;26.082;2022-09-09T06:30:59;101017.84;;;24.66;53.94
9335;BME280;4706;41.844;26.082;2022-09-09T06:33:25;101031.47;;;24.60;54.16
9335;BME280;4706;41.844;26.082;2022-09-09T06:35:52;101032.06;;;24.43;55.10
9335;BME280;4706;41.844;26.082;2022-09-09T06:38:18;101024.63;;;24.61;54.35
9335;BME280;4706;41.844;26.082;2022-09-09T06:40:51;101025.47;;;24.65;54.80
9335;BME280;4706;41.844;26.082;2022-09-09T06:43:16;101024.84;;;24.83;54.62
9335;BME280;4706;41.844;26.082;2022-09-09T06:45:43;101036.81;;;25.13;53.81
9335;BME280;4706;41.844;26.082;2022-09-09T06:48:08;101028.50;;;25.28;53.52
9335;BME280;4706;41.844;26.082;2022-09-09T06:50:34;101026.63;;;25.53;52.91
9335;BME280;4706;41.844;26.082;2022-09-09T06:53:00;101032.41;;;25.75;52.07
9335;BME280;4706;41.844;26.082;2022-09-09T06:55:27;101019.53;;;25.74;51.70
9335;BME280;4706;41.844;26.082;2022-09-09T06:57:53;101023.28;;;25.92;51.35
9335;BME280;4706;41.844;26.082;2022-09-09T07:00:19;101034.69;;;26.21;50.88
9335;BME280;4706;41.844;26.082;2022-09-09T07:02:44;101029.53;;;26.37;50.20
9335;BME280;4706;41.844;26.082;2022-09-09T07:05:10;101025.88;;;26.44;49.90
9335;BME280;4706;41.844;26.082;2022-09-09T07:07:36;101023.03;;;26.36;49.50
9335;BME280;4706;41.844;26.082;2022-09-09T07:10:02;101027.50;;;26.34;50.34
9335;BME280;4706;41.844;26.082;2022-09-09T07:12:29;101028.69;;;26.40;49.70
9335;BME280;4706;41.844;26.082;2022-09-09T07:14:54;101030.69;;;26.36;50.53
9335;BME280;4706;41.844;26.082;2022-09-09T07:17:20;101027.50;;;26.41;50.02
9335;BME280;4706;41.844;26.082;2022-09-09T07:19:45;101028.81;;;26.76;49.91
9335;BME280;4706;41.844;26.082;2022-09-09T07:22:12;101022.41;;;26.93;49.16
9335;BME280;4706;41.844;26.082;2022-09-09T07:24:38;101007.09;;;27.05;47.80
9335;BME280;4706;41.844;26.082;2022-09-09T07:27:04;101012.34;;;27.17;47.77
9335;BME280;4706;41.844;26.082;2022-09-09T07:29:30;101021.63;;;27.21;47.47
9335;BME280;4706;41.844;26.082;2022-09-09T07:31:56;101017.56;;;27.15;47.43
9335;BME280;4706;41.844;26.082;2022-09-09T07:34:22;101022.41;;;27.32;47.62
9335;BME280;4706;41.844;26.082;2022-09-09T07:36:47;101015.53;;;27.48;46.59
9335;BME280;4706;41.844;26.082;2022-09-09T07:39:14;101009.06;;;27.54;46.82
9335;BME280;4706;41.844;26.082;2022-09-09T07:41:49;101015.09;;;27.60;46.43
9335;BME280;4706;41.844;26.082;2022-09-09T07:44:20;101005.78;;;27.70;46.34
9335;BME280;4706;41.844;26.082;2022-09-09T07:46:46;101019.13;;;27.73;45.87
9335;BME280;4706;41.844;26.082;2022-09-09T07:49:13;101016.31;;;27.70;45.47
9335;BME280;4706;41.844;26.082;2022-09-09T07:51:41;100999.75;;;27.79;45.48
9335;BME280;4706;41.844;26.082;2022-09-09T07:54:10;100995.31;;;27.78;45.33
9335;BME280;4706;41.844;26.082;2022-09-09T07:56:37;100993.28;;;27.82;44.93
9335;BME280;4706;41.844;26.082;2022-09-09T07:59:03;100986.38;;;27.87;44.56
9335;BME280;4706;41.844;26.082;2022-09-09T08:01:32;100984.41;;;27.80;43.08
9335;BME280;4706;41.844;26.082;2022-09-09T08:04:02;100977.91;;;27.87;43.46
9335;BME280;4706;41.844;26.082;2022-09-09T08:06:30;100977.09;;;27.90;42.11
9335;BME280;4706;41.844;26.082;2022-09-09T08:08:56;100971.44;;;27.86;42.82
9335;BME280;4706;41.844;26.082;2022-09-09T08:11:23;100975.47;;;27.92;41.95
9335;BME280;4706;41.844;26.082;2022-09-09T08:13:50;100978.56;;;28.19;40.73
9335;BME280;4706;41.844;26.082;2022-09-09T08:16:21;100980.88;;;28.46;40.15
9335;BME280;4706;41.844;26.082;2022-09-09T08:18:52;100989.28;;;28.56;40.70
9335;BME280;4706;41.844;26.082;2022-09-09T08:21:23;100979.47;;;28.72;40.17
9335;BME280;4706;41.844;26.082;2022-09-09T08:23:51;100977.47;;;28.69;40.22
9335;BME280;4706;41.844;26.082;2022-09-09T08:26:22;100991.56;;;28.79;38.87
9335;BME280;4706;41.844;26.082;2022-09-09T08:28:53;100976.69;;;28.65;37.96
9335;BME280;4706;41.844;26.082;2022-09-09T08:31:21;100978.66;;;28.75;37.91
9335;BME280;4706;41.844;26.082;2022-09-09T08:33:47;100979.22;;;29.08;37.62
9335;BME280;4706;41.844;26.082;2022-09-09T08:36:18;100984.50;;;29.06;38.20
9335;BME280;4706;41.844;26.082;2022-09-09T08:38:47;100971.88;;;29.14;37.93
9335;BME280;4706;41.844;26.082;2022-09-09T08:49:35;100956.97;;;29.06;37.92
9335;BME280;4706;41.844;26.082;2022-09-09T08:52:11;100940.47;;;28.94;38.91
9335;BME280;4706;41.844;26.082;2022-09-09T08:54:38;100944.91;;;28.98;38.85
9335;BME280;4706;41.844;26.082;2022-09-09T08:57:13;100947.47;;;29.27;36.88
9335;BME280;4706;41.844;26.082;2022-09-09T08:59:39;100941.31;;;29.36;37.77
9335;BME280;4706;41.844;26.082;2022-09-09T09:05:30;100949.50;;;29.26;38.25
9335;BME280;4706;41.844;26.082;2022-09-09T09:11:17;100927.72;;;29.58;37.65
9335;BME280;4706;41.844;26.082;2022-09-09T09:13:53;100907.72;;;29.72;37.24
9335;BME280;4706;41.844;26.082;2022-09-09T09:18:54;100915.53;;;29.61;37.40
9335;BME280;4706;41.844;26.082;2022-09-09T09:23:58;100926.00;;;29.98;35.99
9335;BME280;4706;41.844;26.082;2022-09-09T09:26:26;100915.81;;;30.00;35.74
9335;BME280;4706;41.844;26.082;2022-09-09T09:28:56;100909.09;;;29.91;36.34
9335;BME280;4706;41.844;26.082;2022-09-09T09:31:22;100915.25;;;30.13;35.47
9335;BME280;4706;41.844;26.082;2022-09-09T09:33:56;100908.34;;;30.17;34.57
9335;BME280;4706;41.844;26.082;2022-09-09T09:36:46;100907.88;;;30.19;35.52
9335;BME280;4706;41.844;26.082;2022-09-09T09:39:31;100906.13;;;30.29;36.26
9335;BME280;4706;41.844;26.082;2022-09-09T09:42:27;100897.41;;;30.43;36.11
9335;BME280;4706;41.844;26.082;2022-09-09T09:44:53;100876.97;;;30.52;36.45
9335;BME280;4706;41.844;26.082;2022-09-09T09:47:22;100879.47;;;30.73;36.59
9335;BME280;4706;41.844;26.082;2022-09-09T09:49:56;100890.63;;;30.84;36.17
9335;BME280;4706;41.844;26.082;2022-09-09T09:52:29;100878.91;;;30.82;36.29
9335;BME280;4706;41.844;26.082;2022-09-09T09:54:56;100877.81;;;30.76;35.75
9335;BME280;4706;41.844;26.082;2022-09-09T09:57:30;100876.09;;;30.82;35.87
9335;BME280;4706;41.844;26.082;2022-09-09T10:00:03;100846.25;;;30.93;35.59
9335;BME280;4706;41.844;26.082;2022-09-09T10:02:38;100866.59;;;31.12;35.58
9335;BME280;4706;41.844;26.082;2022-09-09T10:05:21;100869.97;;;31.27;34.92
9335;BME280;4706;41.844;26.082;2022-09-09T10:08:17;100876.50;;;31.24;34.98
9335;BME280;4706;41.844;26.082;2022-09-09T10:19:15;100858.22;;;31.64;34.18
9335;BME280;4706;41.844;26.082;2022-09-09T10:35:08;100836.47;;;31.94;32.43
9335;BME280;4706;41.844;26.082;2022-09-09T10:37:44;100846.91;;;31.81;32.39
9335;BME280;4706;41.844;26.082;2022-09-09T10:42:45;100833.97;;;31.60;32.68
9335;BME280;4706;41.844;26.082;2022-09-09T10:45:28;100819.78;;;31.76;32.65
9335;BME280;4706;41.844;26.082;2022-09-09T10:56:16;100816.66;;;32.07;32.24
9335;BME280;4706;41.844;26.082;2022-09-09T10:58:50;100818.06;;;31.99;31.88
9335;BME280;4706;41.844;26.082;2022-09-09T11:01:25;100811.25;;;32.12;31.98
9335;BME280;4706;41.844;26.082;2022-09-09T11:03:59;100791.56;;;32.34;30.77
9335;BME280;4706;41.844;26.082;2022-09-09T11:06:31;100793.88;;;32.39;30.86
9335;BME280;4706;41.844;26.082;2022-09-09T11:09:02;100800.41;;;32.40;30.72
9335;BME280;4706;41.844;26.082;2022-09-09T11:11:34;100804.66;;;32.48;30.79
9335;BME280;4706;41.844;26.082;2022-09-09T11:14:14;100804.66;;;32.48;31.01
9335;BME280;4706;41.844;26.082;2022-09-09T11:16:52;100806.38;;;32.75;30.52
9335;BME280;4706;41.844;26.082;2022-09-09T11:19:36;100798.53;;;32.95;30.26
9335;BME280;4706;41.844;26.082;2022-09-09T11:22:32;100786.13;;;33.02;29.71
9335;BME280;4706;41.844;26.082;2022-09-09T11:25:01;100801.16;;;32.73;29.48
9335;BME280;4706;41.844;26.082;2022-09-09T11:27:55;100781.63;;;32.43;29.60
9335;BME280;4706;41.844;26.082;2022-09-09T11:39:02;100788.50;;;32.74;29.72
9335;BME280;4706;41.844;26.082;2022-09-09T11:41:36;100781.88;;;32.94;29.64
9335;BME280;4706;41.844;26.082;2022-09-09T11:44:11;100776.97;;;32.94;28.43
9335;BME280;4706;41.844;26.082;2022-09-09T11:46:39;100746.06;;;32.93;28.74
9335;BME280;4706;41.844;26.082;2022-09-09T11:49:26;100755.56;;;33.02;28.46
9335;BME280;4706;41.844;26.082;2022-09-09T11:51:52;100752.72;;;33.02;28.27
9335;BME280;4706;41.844;26.082;2022-09-09T11:54:30;100764.03;;;32.77;28.57
9335;BME280;4706;41.844;26.082;2022-09-09T11:56:56;100750.06;;;32.66;28.82
9335;BME280;4706;41.844;26.082;2022-09-09T11:59:26;100755.69;;;32.70;29.49
9335;BME280;4706;41.844;26.082;2022-09-09T12:02:17;100753.53;;;32.74;28.89
9335;BME280;4706;41.844;26.082;2022-09-09T12:05:06;100752.63;;;32.77;28.51
9335;BME280;4706;41.844;26.082;2022-09-09T12:13:25;100749.19;;;32.69;28.60
9335;BME280;4706;41.844;26.082;2022-09-09T12:15:54;100744.13;;;32.89;28.42
9335;BME280;4706;41.844;26.082;2022-09-09T12:18:33;100746.38;;;32.82;28.12
9335;BME280;4706;41.844;26.082;2022-09-09T12:23:55;100732.88;;;32.70;27.81
9335;BME280;4706;41.844;26.082;2022-09-09T12:26:36;100727.88;;;32.74;28.21
9335;BME280;4706;41.844;26.082;2022-09-09T12:29:40;100724.16;;;32.77;28.41
9335;BME280;4706;41.844;26.082;2022-09-09T12:32:26;100710.91;;;32.70;28.29
9335;BME280;4706;41.844;26.082;2022-09-09T12:34:55;100708.66;;;32.78;28.28
9335;BME280;4706;41.844;26.082;2022-09-09T12:39:59;100705.34;;;32.79;27.77
9335;BME280;4706;41.844;26.082;2022-09-09T12:42:26;100689.13;;;32.63;28.38
9335;BME280;4706;41.844;26.082;2022-09-09T12:44:57;100688.72;;;32.49;28.21
9335;BME280;4706;41.844;26.082;2022-09-09T12:50:27;100690.53;;;32.43;28.29
9335;BME280;4706;41.844;26.082;2022-09-09T12:52:58;100685.25;;;32.57;28.29
9335;BME280;4706;41.844;26.082;2022-09-09T12:55:28;100678.63;;;32.60;27.90
9335;BME280;4706;41.844;26.082;2022-09-09T12:57:56;100663.88;;;32.49;27.60
9335;BME280;4706;41.844;26.082;2022-09-09T13:00:24;100663.34;;;32.54;27.85
9335;BME280;4706;41.844;26.082;2022-09-09T13:05:22;100658.31;;;32.29;28.33
9335;BME280;4706;41.844;26.082;2022-09-09T13:07:48;100658.69;;;32.31;28.06
9335;BME280;4706;41.844;26.082;2022-09-09T13:10:19;100651.00;;;32.45;27.71
9335;BME280;4706;41.844;26.082;2022-09-09T13:12:46;100653.53;;;32.26;27.69
9335;BME280;4706;41.844;26.082;2022-09-09T13:15:19;100649.88;;;32.26;27.87
9335;BME280;4706;41.844;26.082;2022-09-09T13:17:51;100638.38;;;32.29;28.55
9335;BME280;4706;41.844;26.082;2022-09-09T13:20:19;100632.66;;;32.16;28.91
9335;BME280;4706;41.844;26.082;2022-09-09T13:22:47;100632.28;;;32.14;28.67
9335;BME280;4706;41.844;26.082;2022-09-09T13:25:29;100640.28;;;32.20;28.60
9335;BME280;4706;41.844;26.082;2022-09-09T13:28:00;100638.53;;;32.09;27.56
9335;BME280;4706;41.844;26.082;2022-09-09T13:30:34;100639.28;;;31.97;28.13
9335;BME280;4706;41.844;26.082;2022-09-09T13:33:20;100636.22;;;32.04;28.24
9335;BME280;4706;41.844;26.082;2022-09-09T13:35:54;100638.72;;;32.02;27.99
9335;BME280;4706;41.844;26.082;2022-09-09T13:38:20;100621.38;;;31.97;28.49
9335;BME280;4706;41.844;26.082;2022-09-09T13:40:58;100617.94;;;31.89;28.19
9335;BME280;4706;41.844;26.082;2022-09-09T13:43:28;100616.84;;;31.99;28.76
9335;BME280;4706;41.844;26.082;2022-09-09T13:46:06;100620.88;;;32.02;27.88
9335;BME280;4706;41.844;26.082;2022-09-09T13:49:00;100618.84;;;31.86;28.47
9335;BME280;4706;41.844;26.082;2022-09-09T13:51:33;100618.03;;;31.85;28.78
9335;BME280;4706;41.844;26.082;2022-09-09T13:54:00;100635.47;;;31.87;28.57
9335;BME280;4706;41.844;26.082;2022-09-09T13:56:26;100609.88;;;31.71;28.34
9335;BME280;4706;41.844;26.082;2022-09-09T13:58:52;100624.25;;;31.64;28.71
9335;BME280;4706;41.844;26.082;2022-09-09T14:01:17;100624.59;;;31.66;29.08
9335;BME280;4706;41.844;26.082;2022-09-09T14:03:43;100626.19;;;31.83;28.79
9335;BME280;4706;41.844;26.082;2022-09-09T14:06:10;100616.06;;;31.82;28.94
9335;BME280;4706;41.844;26.082;2022-09-09T14:08:36;100621.31;;;31.84;28.66
9335;BME280;4706;41.844;26.082;2022-09-09T14:11:05;100617.47;;;31.74;28.75
9335;BME280;4706;41.844;26.082;2022-09-09T14:13:32;100618.22;;;31.62;28.52
9335;BME280;4706;41.844;26.082;2022-09-09T14:15:57;100621.66;;;31.69;28.14
9335;BME280;4706;41.844;26.082;2022-09-09T14:18:23;100614.47;;;31.65;28.81
9335;BME280;4706;41.844;26.082;2022-09-09T14:20:50;100623.63;;;31.73;28.13
9335;BME280;4706;41.844;26.082;2022-09-09T14:23:16;100612.19;;;31.60;28.97
9335;BME280;4706;41.844;26.082;2022-09-09T14:25:43;100595.13;;;31.60;28.54
9335;BME280;4706;41.844;26.082;2022-09-09T14:28:13;100619.09;;;31.59;28.37
9335;BME280;4706;41.844;26.082;2022-09-09T14:30:42;100613.50;;;31.55;28.56
9335;BME280;4706;41.844;26.082;2022-09-09T14:33:12;100616.25;;;31.59;28.61
9335;BME280;4706;41.844;26.082;2022-09-09T14:35:38;100609.69;;;31.62;28.42
9335;BME280;4706;41.844;26.082;2022-09-09T14:38:05;100603.75;;;31.56;28.77
9335;BME280;4706;41.844;26.082;2022-09-09T14:40:31;100601.50;;;31.48;28.95
9335;BME280;4706;41.844;26.082;2022-09-09T14:42:57;100596.91;;;31.54;29.20
9335;BME280;4706;41.844;26.082;2022-09-09T14:45:24;100598.56;;;31.51;29.35
9335;BME280;4706;41.844;26.082;2022-09-09T14:47:50;100593.78;;;31.48;28.79
9335;BME280;4706;41.844;26.082;2022-09-09T14:50:17;100599.66;;;31.41;28.61
9335;BME280;4706;41.844;26.082;2022-09-09T14:52:43;100587.31;;;31.31;28.86
9335;BME280;4706;41.844;26.082;2022-09-09T14:55:09;100590.94;;;31.32;28.69
9335;BME280;4706;41.844;26.082;2022-09-09T14:57:35;100592.59;;;31.29;28.47
9335;BME280;4706;41.844;26.082;2022-09-09T15:00:05;100590.75;;;31.23;28.63
9335;BME280;4706;41.844;26.082;2022-09-09T15:02:31;100576.50;;;31.06;28.70
9335;BME280;4706;41.844;26.082;2022-09-09T15:04:56;100586.91;;;31.13;28.46
9335;BME280;4706;41.844;26.082;2022-09-09T15:07:25;100585.72;;;31.10;28.88
9335;BME280;4706;41.844;26.082;2022-09-09T15:09:50;100581.03;;;31.04;28.64
9335;BME280;4706;41.844;26.082;2022-09-09T15:12:18;100579.78;;;31.05;28.85
9335;BME280;4706;41.844;26.082;2022-09-09T15:14:46;100584.31;;;31.02;29.30
9335;BME280;4706;41.844;26.082;2022-09-09T15:17:12;100582.97;;;31.07;29.05
9335;BME280;4706;41.844;26.082;2022-09-09T15:19:38;100585.94;;;31.03;29.06
9335;BME280;4706;41.844;26.082;2022-09-09T15:22:05;100578.78;;;30.95;29.18
9335;BME280;4706;41.844;26.082;2022-09-09T15:24:32;100576.66;;;30.99;28.92
9335;BME280;4706;41.844;26.082;2022-09-09T15:26:58;100585.63;;;30.98;29.33